Time;durP1;ratioP1;P1;durP2;ratioP2;P2;SDS_P1;SDS_P2;PMS_P1;PMS_P2;Temp;Humidity;BMP_temperature;BMP_pressure;BME280_temperature;BME280_humidity;BME280_pressure;Samples;Min_cycle;Max_cycle;Signal;HPM_P1;HPM_P2
2022/02/21 00:02:01;;;;;;;16.50;11.80;;;;;;;-1.22;70.57;97307.38;109638;1250;67874;-63
2022/02/21 00:04:33;;;;;;;17.40;10.70;;;;;;;-1.25;70.80;97304.23;109705;1249;70762;-63
2022/02/21 00:07:04;;;;;;;17.10;10.50;;;;;;;-1.27;69.88;97303.77;109743;1250;59789;-62
2022/02/21 00:09:34;;;;;;;;;;;;;;;-1.33;71.61;97306.80;109702;1250;59722;-62
2022/02/21 00:12:05;;;;;;;18.40;11.30;;;;;;;-1.36;71.65;97307.08;109571;1250;71025;-62
2022/02/21 00:14:37;;;;;;;14.30;11.00;;;;;;;-1.41;72.40;97311.47;109827;1250;67653;-64
2022/02/21 00:17:06;;;;;;;14.20;9.80;;;;;;;-1.43;72.39;97316.83;109875;1250;69221;-63
2022/02/21 00:19:36;;;;;;;17.90;11.20;;;;;;;-1.45;72.99;97309.55;109827;1250;59653;-61
2022/02/21 00:22:06;;;;;;;17.10;10.40;;;;;;;-1.47;73.56;97302.08;109815;1248;59717;-61
2022/02/21 00:24:36;;;;;;;14.60;8.70;;;;;;;-1.51;73.90;97305.42;109799;1250;70982;-61
2022/02/21 00:27:06;;;;;;;12.70;8.70;;;;;;;-1.54;72.48;97306.86;109783;1250;68410;-64
2022/02/21 00:29:36;;;;;;;14.90;11.10;;;;;;;-1.56;71.67;97303.48;109791;1250;68687;-63
2022/02/21 00:32:06;;;;;;;15.50;11.20;;;;;;;-1.60;74.41;97299.83;109859;1250;59684;-64
2022/02/21 00:34:35;;;;;;;;;;;;;;;-1.63;72.53;97291.87;109796;1250;59721;-64
2022/02/21 00:37:05;;;;;;;12.60;8.20;;;;;;;-1.66;71.24;97286.84;109814;1250;71076;-65
2022/02/21 00:39:34;;;;;;;19.20;11.10;;;;;;;-1.70;70.08;97285.59;109782;1249;68817;-64
2022/02/21 00:42:05;;;;;;;17.00;11.20;;;;;;;-1.76;72.36;97279.08;109903;1250;68848;-63
2022/02/21 00:44:35;;;;;;;9.20;6.60;;;;;;;-1.82;73.36;97268.30;109795;1250;59679;-61
2022/02/21 00:47:06;;;;;;;13.80;8.60;;;;;;;-1.78;70.78;97270.58;109892;1250;59689;-62
2022/02/21 00:49:36;;;;;;;16.80;11.70;;;;;;;-1.68;71.55;97276.65;109820;1249;71494;-62
2022/02/21 00:52:06;;;;;;;16.40;10.80;;;;;;;-1.69;73.82;97284.70;109782;1250;67828;-62
2022/02/21 00:54:36;;;;;;;20.30;12.00;;;;;;;-1.72;73.41;97287.33;109722;1250;67566;-61
2022/02/21 00:57:06;;;;;;;22.80;12.20;;;;;;;-1.78;73.09;97285.61;109500;1251;59717;-62
2022/02/21 00:59:36;;;;;;;12.20;8.20;;;;;;;-1.83;73.08;97276.52;109806;1250;59708;-62
2022/02/21 01:02:07;;;;;;;11.80;7.80;;;;;;;-1.85;71.45;97262.39;109848;1249;70745;-63
2022/02/21 01:04:37;;;;;;;16.50;11.70;;;;;;;-1.84;71.25;97256.75;109702;1250;68038;-64
2022/02/21 01:07:07;;;;;;;18.70;12.80;;;;;;;-1.89;75.00;97251.39;109625;1250;69413;-65
2022/02/21 01:09:38;;;;;;;20.90;12.80;;;;;;;-1.96;76.29;97245.25;109792;1250;59754;-63
2022/02/21 01:12:09;;;;;;;15.80;10.10;;;;;;;-2.01;76.63;97247.96;109780;1250;59628;-62
2022/02/21 01:14:39;;;;;;;17.50;11.90;;;;;;;-2.04;75.01;97246.30;109804;1250;72293;-61
2022/02/21 01:17:10;;;;;;;20.20;12.20;;;;;;;-2.10;75.05;97246.11;109788;1249;68454;-63
2022/02/21 01:19:40;;;;;;;15.40;10.60;;;;;;;-2.17;76.55;97242.20;109801;1250;69393;-61
2022/02/21 01:22:10;;;;;;;;;;;;;;;-2.21;76.93;97234.95;109827;1250;59737;-64
2022/02/21 01:24:41;;;;;;;13.50;7.70;;;;;;;-2.19;73.72;97237.13;109789;1250;59751;-63
2022/02/21 01:27:14;;;;;;;;;;;;;;;-2.20;74.12;97234.74;109980;1248;71563;-61
2022/02/21 01:29:44;;;;;;;10.70;8.20;;;;;;;-2.25;75.90;97224.13;109835;1249;68626;-61
2022/02/21 01:32:14;;;;;;;13.40;8.20;;;;;;;-2.27;73.93;97220.75;109793;1250;69378;-63
2022/02/21 01:34:44;;;;;;;;;;;;;;;-2.26;74.28;97216.48;109649;1252;59680;-62
2022/02/21 01:37:15;;;;;;;12.30;8.00;;;;;;;-2.31;75.33;97220.52;109829;1250;59695;-63
2022/02/21 01:39:45;;;;;;;13.60;9.90;;;;;;;-2.36;74.42;97220.64;109890;1250;71528;-64
2022/02/21 01:42:15;;;;;;;15.00;9.40;;;;;;;-2.40;76.20;97222.45;109667;1250;67599;-64
2022/02/21 01:44:47;;;;;;;12.20;8.00;;;;;;;-2.44;76.65;97219.81;109730;1250;68425;-63
2022/02/21 01:47:20;;;;;;;14.50;9.70;;;;;;;-2.47;75.89;97220.58;109706;1250;59742;-63
2022/02/21 01:49:51;;;;;;;12.60;8.30;;;;;;;-2.52;75.84;97213.02;109772;1250;59700;-63
2022/02/21 01:52:21;;;;;;;11.40;7.60;;;;;;;-2.55;74.08;97206.61;109917;1250;71529;-63
2022/02/21 01:54:51;;;;;;;15.00;9.50;;;;;;;-2.59;75.73;97207.70;109909;1250;67827;-63
2022/02/21 01:57:21;;;;;;;14.30;10.10;;;;;;;-2.65;77.35;97210.40;109988;1248;68431;-63
2022/02/21 01:59:52;;;;;;;19.60;11.00;;;;;;;-2.70;78.07;97204.21;109844;1250;59745;-66
2022/02/21 02:02:22;;;;;;;;;;;;;;;-2.75;79.51;97200.27;109895;1250;59596;-64
2022/02/21 02:04:52;;;;;;;17.00;10.50;;;;;;;-2.78;80.15;97196.40;109887;1250;70529;-62
2022/02/21 02:07:22;;;;;;;;;;;;;;;-2.78;79.96;97196.05;109868;1250;68635;-59
2022/02/21 02:09:52;;;;;;;14.50;8.70;;;;;;;-2.78;79.39;97192.29;109861;1250;68872;-62
2022/02/21 02:12:22;;;;;;;;;;;;;;;-2.78;78.95;97182.73;109890;1250;59749;-65
2022/02/21 02:14:52;;;;;;;11.90;7.10;;;;;;;-2.78;77.14;97178.98;109850;1250;59713;-63
2022/02/21 02:17:23;;;;;;;16.70;9.70;;;;;;;-2.78;76.36;97171.16;109963;1250;71503;-63
2022/02/21 02:19:52;;;;;;;;;;;;;;;-2.81;77.81;97160.83;109816;1250;68693;-64
2022/02/21 02:22:23;;;;;;;16.00;9.20;;;;;;;-2.81;78.26;97161.34;109927;1249;69427;-62
2022/02/21 02:24:54;;;;;;;15.10;8.30;;;;;;;-2.83;77.93;97164.61;109742;1250;59695;-63
2022/02/21 02:27:25;;;;;;;18.90;10.80;;;;;;;-2.85;76.47;97166.73;109689;1250;59677;-63
2022/02/21 02:29:59;;;;;;;18.40;11.60;;;;;;;-2.89;78.63;97167.14;109845;1250;71525;-63
2022/02/21 02:32:29;;;;;;;11.00;7.80;;;;;;;-2.92;78.54;97163.79;109828;1250;68624;-61
2022/02/21 02:34:58;;;;;;;9.40;6.80;;;;;;;-2.93;76.87;97165.86;109894;1249;69147;-61
2022/02/21 02:37:28;;;;;;;11.40;6.60;;;;;;;-2.93;74.92;97169.62;109850;1250;59819;-62
2022/02/21 02:39:58;;;;;;;8.70;6.60;;;;;;;-2.90;74.59;97163.59;109928;1249;59691;-63
2022/02/21 02:42:28;;;;;;;15.70;9.80;;;;;;;-2.91;74.92;97165.48;110009;1249;71262;-59
2022/02/21 02:44:58;;;;;;;8.70;6.80;;;;;;;-2.93;76.34;97162.64;109332;1250;643786;-61
2022/02/21 02:47:28;;;;;;;19.80;11.40;;;;;;;-2.96;76.59;97159.13;109843;1250;69468;-63
2022/02/21 02:49:59;;;;;;;13.30;7.70;;;;;;;-3.00;79.03;97158.88;109843;1250;60065;-63
2022/02/21 02:52:29;;;;;;;;;;;;;;;-2.89;76.79;97153.52;109774;1250;59694;-61
2022/02/21 02:54:59;;;;;;;15.40;8.70;;;;;;;-2.70;79.15;97151.50;110002;1249;71255;-65
2022/02/21 02:57:29;;;;;;;16.60;9.60;;;;;;;-2.52;80.35;97150.73;110038;1249;68816;-61
2022/02/21 02:59:59;;;;;;;16.20;9.50;;;;;;;-2.41;80.16;97150.12;110034;1249;69475;-62
2022/02/21 03:02:29;;;;;;;19.50;10.10;;;;;;;-2.36;79.71;97148.10;110047;1248;59746;-61
2022/02/21 03:04:59;;;;;;;20.90;12.50;;;;;;;-2.34;79.20;97144.63;109980;1249;59682;-61
2022/02/21 03:07:29;;;;;;;21.90;11.40;;;;;;;-2.40;79.90;97146.50;109720;1250;69863;-61
2022/02/21 03:09:59;;;;;;;;;;;;;;;-2.49;80.54;97146.73;109846;1250;68405;-61
2022/02/21 03:12:29;;;;;;;19.40;12.50;;;;;;;-2.58;80.91;97143.89;109984;1248;69616;-60
2022/02/21 03:14:59;;;;;;;21.50;13.20;;;;;;;-2.67;81.10;97148.02;109999;1249;59774;-61
2022/02/21 03:17:29;;;;;;;16.60;10.00;;;;;;;-2.73;80.91;97142.71;109887;1249;59682;-60
2022/02/21 03:19:58;;;;;;;19.60;11.50;;;;;;;-2.69;79.40;97138.52;110059;1250;70933;-63
2022/02/21 03:22:28;;;;;;;;;;;;;;;-2.68;80.77;97138.48;109776;1250;68589;-63
2022/02/21 03:24:59;;;;;;;13.70;8.90;;;;;;;-2.71;81.04;97133.13;109831;1250;68615;-62
2022/02/21 03:27:29;;;;;;;13.00;8.10;;;;;;;-2.74;79.95;97131.48;109879;1247;59732;-62
2022/02/21 03:29:59;;;;;;;20.00;12.80;;;;;;;-2.79;79.56;97126.30;109966;1250;59707;-62
2022/02/21 03:32:29;;;;;;;15.20;10.00;;;;;;;-2.84;80.16;97122.85;109842;1250;71496;-62
2022/02/21 03:34:59;;;;;;;20.10;13.10;;;;;;;-2.89;81.04;97117.85;110036;1250;68673;-64
2022/02/21 03:37:29;;;;;;;13.60;10.00;;;;;;;-2.94;81.71;97109.79;109867;1248;69232;-63
2022/02/21 03:39:59;;;;;;;24.80;13.50;;;;;;;-2.97;81.16;97105.77;109854;1250;59699;-64
2022/02/21 03:42:29;;;;;;;16.20;10.70;;;;;;;-3.00;81.61;97101.58;109854;1250;59689;-64
2022/02/21 03:45:00;;;;;;;24.10;13.40;;;;;;;-3.04;81.03;97097.41;109779;1250;70765;-63
2022/02/21 03:47:30;;;;;;;17.70;9.90;;;;;;;-3.09;82.18;97094.98;109989;1249;67981;-62
2022/02/21 03:49:59;;;;;;;15.60;9.30;;;;;;;-3.10;80.97;97093.80;109858;1250;68464;-62
2022/02/21 03:52:29;;;;;;;16.90;10.50;;;;;;;-3.12;80.43;97091.13;109725;1251;59835;-65
2022/02/21 03:54:59;;;;;;;17.00;11.00;;;;;;;-3.16;81.81;97081.48;109768;1250;59754;-62
2022/02/21 03:57:30;;;;;;;15.10;10.50;;;;;;;-3.12;79.97;97073.23;109772;1250;71183;-63
2022/02/21 04:00:00;;;;;;;19.40;11.50;;;;;;;-3.03;80.03;97068.58;109741;1251;67829;-63
2022/02/21 04:02:40;;;;;;;22.20;14.00;;;;;;;-2.99;80.61;97067.30;109767;1250;68656;-63
2022/02/21 04:05:14;;;;;;;20.20;12.20;;;;;;;-3.02;82.55;97063.45;109777;1250;59741;-64
2022/02/21 04:07:44;;;;;;;23.40;13.80;;;;;;;-3.04;81.30;97055.66;109821;1250;59751;-63
2022/02/21 04:10:18;;;;;;;19.90;9.90;;;;;;;-3.07;81.99;97048.73;109853;1250;71319;-64
2022/02/21 04:12:48;;;;;;;19.50;10.90;;;;;;;-3.03;79.98;97045.73;109730;1250;68593;-63
2022/02/21 04:15:18;;;;;;;23.20;14.90;;;;;;;-2.99;81.07;97040.70;109625;1253;69640;-63
2022/02/21 04:17:51;;;;;;;19.90;14.30;;;;;;;-3.05;82.60;97031.80;109772;1250;59952;-62
2022/02/21 04:20:23;;;;;;;16.60;11.30;;;;;;;-3.09;82.28;97022.70;109614;1250;59743;-61
2022/02/21 04:22:53;;;;;;;20.80;12.70;;;;;;;-3.12;81.53;97014.76;109718;1250;72328;-61
2022/02/21 04:25:23;;;;;;;25.60;17.30;;;;;;;-3.15;82.84;97009.70;109790;1250;68431;-64
2022/02/21 04:27:55;;;;;;;25.80;15.90;;;;;;;-3.15;83.80;97009.19;109719;1250;69404;-61
2022/02/21 04:30:26;;;;;;;18.30;12.10;;;;;;;-3.16;83.84;97004.95;109897;1250;59741;-61
2022/02/21 04:32:56;;;;;;;23.30;14.20;;;;;;;-3.17;83.36;97001.06;109682;1250;59766;-61
2022/02/21 04:35:27;;;;;;;23.00;14.60;;;;;;;-3.18;83.35;97006.38;109747;1250;71523;-61
2022/02/21 04:37:57;;;;;;;14.40;9.60;;;;;;;-3.17;83.42;97007.37;109760;1249;67843;-63
2022/02/21 04:40:28;;;;;;;25.60;13.90;;;;;;;-3.15;83.25;97008.35;109683;1250;68807;-63
2022/02/21 04:42:58;;;;;;;22.00;12.80;;;;;;;-3.14;84.96;97005.95;109840;1250;59697;-62
2022/02/21 04:45:30;;;;;;;22.80;13.90;;;;;;;-3.14;85.68;96997.59;109710;1250;59692;-63
2022/02/21 04:48:00;;;;;;;17.60;11.50;;;;;;;-3.12;86.33;96994.63;109780;1250;71386;-63
2022/02/21 04:50:30;;;;;;;20.90;12.40;;;;;;;-3.10;85.91;96997.83;109852;1250;67630;-62
2022/02/21 04:53:00;;;;;;;19.30;12.90;;;;;;;-3.06;86.94;96997.05;109780;1250;68764;-62
2022/02/21 04:55:29;;;;;;;17.40;10.80;;;;;;;-3.02;87.07;96996.45;109684;1250;59682;-62
2022/02/21 04:57:59;;;;;;;19.20;11.90;;;;;;;-3.01;85.99;96997.27;109768;1250;59621;-62
2022/02/21 05:00:29;;;;;;;18.60;12.50;;;;;;;-3.02;86.09;96991.13;109746;1250;71394;-61
2022/02/21 05:02:59;;;;;;;16.10;9.40;;;;;;;-2.99;85.31;96982.90;109669;1249;69055;-62
2022/02/21 05:05:29;;;;;;;21.00;12.20;;;;;;;-2.94;82.86;96983.96;109617;1251;69461;-62
2022/02/21 05:07:58;;;;;;;34.50;20.90;;;;;;;-2.91;82.61;96982.85;109844;1250;59688;-60
2022/02/21 05:10:29;;;;;;;30.90;19.50;;;;;;;-2.89;84.77;96985.18;109778;1250;59679;-62
2022/02/21 05:12:58;;;;;;;23.50;14.90;;;;;;;-2.87;85.26;96982.57;109723;1250;69888;-61
2022/02/21 05:15:28;;;;;;;20.30;14.00;;;;;;;-2.86;85.35;96976.23;109656;1250;69448;-60
2022/02/21 05:17:58;;;;;;;24.20;15.00;;;;;;;-2.86;85.24;96971.97;109685;1250;69556;-63
2022/02/21 05:20:27;;;;;;;19.80;13.20;;;;;;;-2.84;85.87;96966.80;109720;1250;59711;-64
2022/02/21 05:22:57;;;;;;;15.90;10.80;;;;;;;-2.81;86.41;96969.45;109729;1250;59748;-64
2022/02/21 05:25:27;;;;;;;19.30;11.40;;;;;;;-2.80;85.58;96972.16;109793;1250;70584;-62
2022/02/21 05:27:56;;;;;;;25.60;18.50;;;;;;;-2.81;85.05;96969.45;109718;1250;68036;-62
2022/02/21 05:30:25;;;;;;;24.00;15.70;;;;;;;-2.80;85.90;96970.77;109697;1250;68753;-61
2022/02/21 05:32:55;;;;;;;21.50;12.50;;;;;;;-2.75;86.55;96968.45;109727;1250;59828;-64
2022/02/21 05:35:24;;;;;;;19.30;11.30;;;;;;;-2.70;86.59;96968.63;109784;1250;59695;-63
2022/02/21 05:37:54;;;;;;;25.40;14.30;;;;;;;-2.65;86.11;96972.42;109831;1250;70802;-61
2022/02/21 05:40:23;;;;;;;20.50;12.60;;;;;;;-2.57;86.53;96973.41;109653;1250;68468;-61
2022/02/21 05:42:53;;;;;;;20.30;13.70;;;;;;;-2.50;85.99;96971.17;109545;1250;69392;-63
2022/02/21 05:45:23;;;;;;;20.10;13.20;;;;;;;-2.44;85.79;96968.24;109550;1251;59798;-60
2022/02/21 05:47:52;;;;;;;21.50;12.70;;;;;;;-2.32;83.95;96961.27;109642;1250;59696;-62
2022/02/21 05:50:22;;;;;;;20.80;12.30;;;;;;;-2.20;83.59;96965.52;109747;1250;71636;-62
2022/02/21 05:52:51;;;;;;;16.40;11.60;;;;;;;-2.11;84.27;96962.52;109625;1253;68642;-62
2022/02/21 05:55:21;;;;;;;22.60;14.60;;;;;;;-1.98;83.57;96962.31;109723;1250;70162;-63
2022/02/21 05:57:59;;;;;;;13.50;10.70;;;;;;;-1.88;83.44;96958.42;109792;1250;59742;-64
2022/02/21 06:00:29;;;;;;;23.70;15.10;;;;;;;-1.77;82.37;96955.19;109933;1249;59824;-64
2022/02/21 06:02:58;;;;;;;23.80;15.10;;;;;;;-1.68;82.63;96950.80;109825;1253;70876;-62
2022/02/21 06:05:28;;;;;;;24.80;15.90;;;;;;;-1.56;81.77;96944.27;109727;1250;68684;-62
2022/02/21 06:07:59;;;;;;;22.70;15.50;;;;;;;-1.45;81.53;96938.79;109856;1249;68647;-62
2022/02/21 06:10:29;;;;;;;18.20;12.30;;;;;;;-1.38;81.49;96932.23;110007;1250;60137;-59
2022/02/21 06:12:57;;;;;;;24.20;14.40;;;;;;;-1.30;81.16;96928.02;109909;1250;59770;-62
2022/02/21 06:15:27;;;;;;;28.80;17.70;;;;;;;-1.25;81.63;96922.55;110068;1249;71652;-61
2022/02/21 06:17:58;;;;;;;23.30;15.70;;;;;;;-1.21;81.40;96914.89;109784;1250;68708;-64
2022/02/21 06:20:28;;;;;;;22.70;14.20;;;;;;;-1.15;81.05;96909.05;110026;1250;69386;-62
2022/02/21 06:22:57;;;;;;;26.20;17.00;;;;;;;-1.09;81.22;96909.35;110071;1250;59669;-63
2022/02/21 06:25:27;;;;;;;24.00;16.40;;;;;;;-1.01;81.22;96908.06;110013;1248;59676;-65
2022/02/21 06:27:57;;;;;;;28.30;17.80;;;;;;;-0.91;81.01;96898.99;109765;1250;70757;-62
2022/02/21 06:30:26;;;;;;;23.50;15.70;;;;;;;-0.78;80.98;96892.70;109798;1248;69057;-61
2022/02/21 06:32:56;;;;;;;23.30;14.70;;;;;;;-0.61;80.71;96889.35;109725;1250;69232;-61
2022/02/21 06:35:25;;;;;;;21.30;13.60;;;;;;;-0.39;80.83;96880.48;109949;1250;59749;-61
2022/02/21 06:37:55;;;;;;;24.60;17.60;;;;;;;0.01;80.63;96885.27;109720;1250;59743;-61
2022/02/21 06:40:26;;;;;;;20.80;13.10;;;;;;;0.70;79.60;96879.41;109704;1251;71679;-61
2022/02/21 06:42:56;;;;;;;28.70;17.10;;;;;;;1.47;77.74;96869.86;110002;1249;67872;-62
2022/02/21 06:45:27;;;;;;;25.00;16.50;;;;;;;2.21;75.39;96867.83;109948;1250;69274;-63
2022/02/21 06:47:57;;;;;;;22.10;16.30;;;;;;;2.83;72.00;96865.09;109810;1250;59693;-64
2022/02/21 06:50:26;;;;;;;18.10;13.00;;;;;;;3.42;70.91;96860.30;109851;1250;59674;-64
2022/02/21 06:52:56;;;;;;;14.40;10.20;;;;;;;4.09;69.60;96858.56;109718;1250;71570;-63
2022/02/21 06:55:25;;;;;;;14.70;10.20;;;;;;;4.57;65.91;96856.88;109929;1250;68627;-63
2022/02/21 06:57:54;;;;;;;15.60;12.40;;;;;;;4.97;65.06;96848.70;109814;1250;68683;-63
2022/02/21 07:00:23;;;;;;;15.10;10.50;;;;;;;5.30;63.22;96843.08;109858;1249;59749;-62
2022/02/21 07:02:53;;;;;;;12.10;9.30;;;;;;;5.60;62.23;96828.42;109783;1250;59764;-61
2022/02/21 07:05:23;;;;;;;10.60;8.70;;;;;;;5.89;60.94;96824.94;109718;1250;71358;-63
2022/02/21 07:07:52;;;;;;;11.20;8.50;;;;;;;6.05;60.48;96829.13;109897;1250;68033;-63
2022/02/21 07:10:23;;;;;;;14.40;9.70;;;;;;;6.28;60.29;96827.98;109732;1250;69395;-63
2022/02/21 07:12:53;;;;;;;9.60;8.30;;;;;;;6.32;58.69;96821.85;109860;1250;59757;-63
2022/02/21 07:15:24;;;;;;;11.40;9.00;;;;;;;6.53;59.14;96822.89;109761;1250;59754;-65
2022/02/21 07:17:54;;;;;;;14.00;10.90;;;;;;;6.55;56.95;96823.46;109901;1250;71597;-63
2022/02/21 07:20:26;;;;;;;13.30;10.00;;;;;;;6.59;56.12;96823.00;109630;1250;67811;-63
2022/02/21 07:22:56;;;;;;;10.60;7.70;;;;;;;7.11;56.49;96812.42;109667;1250;68637;-63
2022/02/21 07:25:28;;;;;;;12.40;8.00;;;;;;;7.66;54.42;96805.31;109826;1250;59734;-62
2022/02/21 07:27:57;;;;;;;10.60;8.50;;;;;;;8.29;53.51;96801.09;109793;1249;59695;-63
2022/02/21 07:30:28;;;;;;;10.90;8.20;;;;;;;8.67;50.53;96796.39;109878;1250;70950;-63
2022/02/21 07:32:58;;;;;;;10.00;7.50;;;;;;;8.71;50.86;96794.25;109799;1250;68639;-61
2022/02/21 07:35:28;;;;;;;10.00;8.50;;;;;;;9.14;50.53;96788.69;109759;1250;69398;-62
2022/02/21 07:37:57;;;;;;;9.80;7.50;;;;;;;9.58;48.13;96787.32;109788;1250;59752;-63
2022/02/21 07:40:28;;;;;;;10.90;8.20;;;;;;;9.74;48.15;96787.61;109631;1250;59763;-63
2022/02/21 07:42:57;;;;;;;16.60;10.40;;;;;;;10.03;47.72;96785.53;109700;1250;70755;-63
2022/02/21 07:45:27;;;;;;;13.90;8.90;;;;;;;10.22;46.40;96782.83;109797;1250;67980;-61
2022/02/21 07:48:00;;;;;;;10.30;7.70;;;;;;;9.79;46.89;96779.60;109751;1249;69421;-63
2022/02/21 07:50:30;;;;;;;10.60;7.70;;;;;;;10.28;46.02;96781.23;109712;1250;59766;-63
2022/02/21 07:53:00;;;;;;;;;;;;;;;10.34;45.26;96776.59;109881;1250;59676;-62
2022/02/21 07:55:29;;;;;;;9.00;6.70;;;;;;;10.63;44.58;96780.48;109829;1249;71579;-64
2022/02/21 07:57:59;;;;;;;8.70;7.80;;;;;;;11.08;44.17;96780.38;109838;1250;67868;-62
2022/02/21 08:00:28;;;;;;;10.10;6.90;;;;;;;11.17;43.10;96782.21;109588;1253;67491;-62
2022/02/21 08:02:58;;;;;;;10.70;7.80;;;;;;;11.42;43.08;96775.90;109864;1250;59752;-62
2022/02/21 08:05:29;;;;;;;8.80;6.30;;;;;;;11.42;43.07;96771.50;109726;1250;59742;-65
2022/02/21 08:07:58;;;;;;;7.20;5.90;;;;;;;11.76;41.21;96769.08;109771;1250;71340;-65
2022/02/21 08:10:28;;;;;;;9.60;7.30;;;;;;;11.72;41.43;96764.55;109699;1250;67615;-65
2022/02/21 08:12:57;;;;;;;11.60;7.90;;;;;;;11.80;40.97;96760.34;109553;1251;68698;-65
2022/02/21 08:15:26;;;;;;;9.70;6.80;;;;;;;11.85;41.30;96749.55;109822;1250;59759;-66
2022/02/21 08:17:56;;;;;;;9.50;7.30;;;;;;;12.20;40.03;96738.67;109654;1250;59697;-62
2022/02/21 08:20:26;;;;;;;;;;;;;;;12.54;40.00;96734.02;109837;1250;69838;-63
2022/02/21 08:22:55;;;;;;;7.00;5.50;;;;;;;13.27;39.11;96734.71;109776;1250;69001;-63
2022/02/21 08:25:27;;;;;;;8.50;6.90;;;;;;;13.72;37.67;96727.69;109744;1250;68778;-63
2022/02/21 08:27:56;;;;;;;11.20;8.30;;;;;;;14.01;38.03;96716.98;109551;1253;59712;-64
2022/02/21 08:30:26;;;;;;;9.90;8.30;;;;;;;14.46;36.35;96713.95;109616;1253;59740;-65
2022/02/21 08:32:55;;;;;;;6.70;5.90;;;;;;;14.64;35.35;96715.99;109676;1250;72273;-64
2022/02/21 08:35:26;;;;;;;7.70;6.30;;;;;;;14.70;35.21;96714.92;109717;1251;68584;-64
2022/02/21 08:37:56;;;;;;;8.90;6.50;;;;;;;14.65;35.23;96715.96;109563;1253;68641;-63
2022/02/21 08:40:34;;;;;;;8.30;5.60;;;;;;;15.03;34.71;96717.01;109623;1253;59769;-63
2022/02/21 08:43:03;;;;;;;8.00;6.20;;;;;;;15.39;34.26;96714.06;109517;1253;59675;-62
2022/02/21 08:45:32;;;;;;;5.30;4.70;;;;;;;15.60;33.25;96706.38;109734;1250;70819;-65
2022/02/21 08:48:02;;;;;;;5.50;4.90;;;;;;;15.67;32.89;96703.71;109632;1253;68603;-63
2022/02/21 08:50:32;;;;;;;5.40;4.40;;;;;;;15.45;32.75;96698.14;109676;1251;68813;-63
2022/02/21 08:53:01;;;;;;;5.90;5.00;;;;;;;15.32;33.36;96692.73;109653;1250;59746;-63
2022/02/21 08:55:30;;;;;;;8.40;5.40;;;;;;;15.46;33.07;96691.99;109697;1250;59659;-64
2022/02/21 08:58:00;;;;;;;6.70;5.50;;;;;;;15.85;32.02;96686.90;109628;1251;71581;-64
2022/02/21 09:00:29;;;;;;;6.50;5.50;;;;;;;15.96;32.03;96682.99;109737;1250;68713;-66
2022/02/21 09:02:58;;;;;;;7.00;5.20;;;;;;;16.06;31.87;96674.70;109888;1250;69433;-66
2022/02/21 09:05:32;;;;;;;5.40;4.90;;;;;;;16.23;31.54;96673.20;109793;1250;59750;-64
2022/02/21 09:08:02;;;;;;;5.60;4.60;;;;;;;16.19;32.04;96669.16;109772;1250;59695;-63
2022/02/21 09:10:32;;;;;;;5.40;4.30;;;;;;;16.21;31.35;96668.50;109750;1250;71355;-65
2022/02/21 09:13:02;;;;;;;5.10;3.60;;;;;;;16.23;30.54;96660.48;109691;1250;69114;-66
2022/02/21 09:15:32;;;;;;;5.40;4.40;;;;;;;16.90;31.55;96656.75;109724;1250;69504;-64
2022/02/21 09:18:02;;;;;;;5.70;5.00;;;;;;;17.40;29.60;96658.23;109745;1250;59709;-66
2022/02/21 09:20:33;;;;;;;7.10;4.40;;;;;;;17.63;28.42;96654.48;109795;1250;59612;-65
2022/02/21 09:23:03;;;;;;;4.90;3.60;;;;;;;17.25;28.33;96651.61;109677;1252;71555;-65
2022/02/21 09:25:32;;;;;;;6.30;4.60;;;;;;;16.96;28.72;96643.67;109679;1251;68730;-63
2022/02/21 09:28:02;;;;;;;4.60;3.70;;;;;;;16.86;29.16;96639.23;109685;1253;69443;-63
2022/02/21 09:30:31;;;;;;;7.20;5.00;;;;;;;17.34;28.76;96639.86;109755;1253;59715;-64
2022/02/21 09:33:01;;;;;;;5.80;4.40;;;;;;;17.40;28.21;96636.56;109794;1250;59686;-64
2022/02/21 09:35:30;;;;;;;;;;;;;;;17.25;28.57;96634.34;109728;1250;70717;-65
2022/02/21 09:37:59;;;;;;;7.10;4.90;;;;;;;16.48;29.25;96622.98;109631;1251;67694;-65
2022/02/21 09:40:29;;;;;;;8.50;4.90;;;;;;;14.92;30.78;96622.17;109696;1251;67926;-65
2022/02/21 09:42:59;;;;;;;6.90;4.20;;;;;;;14.99;31.28;96619.29;109706;1250;59745;-66
2022/02/21 09:45:29;;;;;;;4.10;3.60;;;;;;;16.06;30.70;96613.38;109722;1251;59739;-64
2022/02/21 09:47:59;;;;;;;;;;;;;;;16.83;28.93;96613.92;109660;1253;71661;-67
2022/02/21 09:50:39;;;;;;;5.20;3.60;;;;;;;17.28;27.56;96617.05;109517;1253;67864;-64
2022/02/21 09:53:09;;;;;;;;;;;;;;;17.75;27.12;96610.77;109621;1253;69277;-67
2022/02/21 09:55:39;;;;;;;5.00;4.00;;;;;;;17.81;26.53;96606.40;109701;1250;59711;-64
2022/02/21 09:58:09;;;;;;;5.60;3.70;;;;;;;17.25;27.41;96602.17;109906;1249;59708;-64
2022/02/21 10:00:38;;;;;;;6.10;4.00;;;;;;;17.19;27.24;96597.23;109815;1250;70834;-64
2022/02/21 10:03:07;;;;;;;5.60;3.70;;;;;;;17.05;27.30;96599.63;109932;1250;67857;-63
2022/02/21 10:05:37;;;;;;;5.20;3.90;;;;;;;17.36;26.94;96597.83;109712;1253;68664;-65
2022/02/21 10:08:07;;;;;;;6.30;3.90;;;;;;;17.51;26.96;96591.52;109915;1250;59771;-66
2022/02/21 10:10:38;;;;;;;5.30;3.90;;;;;;;17.94;26.41;96577.59;109816;1250;59740;-64
2022/02/21 10:13:07;;;;;;;5.00;3.80;;;;;;;18.30;26.19;96565.94;109791;1250;70822;-65
2022/02/21 10:15:37;;;;;;;7.40;4.90;;;;;;;18.62;25.93;96550.58;109734;1251;67909;-65
2022/02/21 10:18:12;;;;;;;;;;;;;;;18.01;26.39;96545.55;109651;1251;69496;-65
2022/02/21 10:20:58;;;;;;;5.20;3.40;;;;;;;18.47;25.82;96535.05;109749;1250;59761;-64
2022/02/21 10:23:34;;;;;;;5.50;4.20;;;;;;;18.83;25.71;96525.09;109911;1250;59698;-68
2022/02/21 10:26:06;;;;;;;5.00;3.60;;;;;;;18.74;26.04;96516.11;109890;1250;70774;-64
2022/02/21 10:28:39;;;;;;;7.70;4.30;;;;;;;19.23;25.46;96509.46;110045;1250;67873;-66
2022/02/21 10:31:15;;;;;;;5.10;3.40;;;;;;;18.36;26.09;96505.55;109824;1250;69277;-65
2022/02/21 10:34:00;;;;;;;4.40;3.30;;;;;;;19.29;24.99;96500.73;109877;1251;59754;-64
2022/02/21 10:36:32;;;;;;;4.10;3.50;;;;;;;19.00;24.80;96499.71;109816;1250;59710;-65
2022/02/21 10:39:11;;;;;;;3.70;2.70;;;;;;;19.18;24.01;96495.59;109932;1250;72174;-64
2022/02/21 10:41:52;;;;;;;5.10;2.60;;;;;;;18.62;24.68;96485.62;110036;1250;66813;-67
2022/02/21 10:44:31;;;;;;;4.10;2.80;;;;;;;19.14;24.22;96486.22;110038;1250;68906;-67
2022/02/21 10:47:15;;;;;;;5.40;3.00;;;;;;;19.54;23.62;96478.95;110004;1250;59767;-65
2022/02/21 10:49:56;;;;;;;3.70;2.70;;;;;;;19.60;23.15;96469.20;110040;1250;59661;-63
2022/02/21 10:52:32;;;;;;;3.40;2.60;;;;;;;19.69;23.18;96462.38;109730;1250;70799;-67
2022/02/21 10:55:02;;;;;;;4.20;2.50;;;;;;;19.62;23.45;96454.68;109698;1251;67819;-65
2022/02/21 10:57:42;;;;;;;4.50;2.60;;;;;;;19.99;22.93;96448.92;109833;1250;68664;-66
2022/02/21 11:00:12;;;;;;;;;;;;;;;20.21;22.71;96440.27;109770;1251;59771;-65
2022/02/21 11:02:43;;;;;;;3.70;2.50;;;;;;;20.36;22.61;96437.30;109699;1251;59760;-65
2022/02/21 11:05:12;;;;;;;4.90;2.50;;;;;;;20.42;22.40;96424.35;109670;1253;71511;-64
2022/02/21 11:07:41;;;;;;;3.90;3.00;;;;;;;20.23;22.58;96415.34;109673;1252;68564;-65
2022/02/21 11:10:11;;;;;;;4.80;3.30;;;;;;;19.89;23.09;96412.36;109658;1253;69792;-66
2022/02/21 11:12:44;;;;;;;6.10;3.30;;;;;;;19.42;23.23;96401.47;109658;1253;59764;-65
2022/02/21 11:15:14;;;;;;;4.70;2.90;;;;;;;18.73;24.27;96395.00;109695;1252;59666;-65
2022/02/21 11:17:44;;;;;;;4.50;3.30;;;;;;;18.11;24.94;96390.50;109731;1253;71602;-67
2022/02/21 11:20:14;;;;;;;3.40;2.70;;;;;;;17.65;25.79;96380.98;109727;1251;68579;-65
2022/02/21 11:22:43;;;;;;;4.10;3.30;;;;;;;17.43;26.04;96374.30;109662;1251;69707;-65
2022/02/21 11:25:35;;;;;;;4.00;3.40;;;;;;;16.84;26.75;96365.20;109777;1251;59717;-65
2022/02/21 11:28:21;;;;;;;5.00;3.50;;;;;;;16.27;27.54;96362.33;109867;1249;59631;-65
2022/02/21 11:30:54;;;;;;;4.10;2.90;;;;;;;15.56;28.67;96361.59;109831;1250;70840;-65
2022/02/21 11:33:23;;;;;;;5.20;3.70;;;;;;;15.00;29.49;96356.17;109834;1251;67271;-66
2022/02/21 11:36:06;;;;;;;4.50;3.00;;;;;;;14.61;30.07;96349.69;109836;1251;69434;-65
2022/02/21 11:38:40;;;;;;;4.80;3.20;;;;;;;13.98;31.18;96345.36;109736;1251;59776;-66